Time;durP1;ratioP1;P1;durP2;ratioP2;P2;SDS_P1;SDS_P2;PMS_P1;PMS_P2;Temp;Humidity;BMP_temperature;BMP_pressure;BME280_temperature;BME280_humidity;BME280_pressure;Samples;Min_cycle;Max_cycle;Signal;HPM_P1;HPM_P2
2023/08/08 00:00:52;;;;;;;6.85;3.15;;;;;;;15.81;84.89;100033.00;4983488;28;20451;-84
2023/08/08 00:03:19;;;;;;;5.80;2.55;;;;;;;15.78;85.01;100026.13;4970629;28;20043;-83
2023/08/08 00:05:46;;;;;;;7.30;2.65;;;;;;;15.78;84.85;100034.19;4969929;28;20049;-84
2023/08/08 00:08:13;;;;;;;7.32;3.03;;;;;;;15.76;84.75;100021.97;4973830;28;20104;-83
2023/08/08 00:10:39;;;;;;;6.07;2.88;;;;;;;15.75;84.77;100025.66;4985728;28;20073;-83
2023/08/08 00:13:06;;;;;;;6.05;2.58;;;;;;;15.72;84.52;100023.28;5022515;28;20041;-83
2023/08/08 00:15:33;;;;;;;2.95;2.42;;;;;;;15.69;84.42;100026.25;5008125;28;20108;-84
2023/08/08 00:18:00;;;;;;;5.53;2.08;;;;;;;15.66;84.46;100029.25;5008529;28;20046;-83
2023/08/08 00:20:26;;;;;;;3.55;2.35;;;;;;;15.66;84.31;100026.59;4995591;28;20070;-83
2023/08/08 00:22:53;;;;;;;4.60;2.08;;;;;;;15.62;84.31;100034.94;5004600;28;20405;-83
2023/08/08 00:25:20;;;;;;;6.45;2.08;;;;;;;15.62;84.07;100031.41;5011508;28;20081;-84
2023/08/08 00:27:47;;;;;;;5.13;2.30;;;;;;;15.59;84.36;100024.53;4995703;28;20042;-83
2023/08/08 00:30:14;;;;;;;4.30;2.40;;;;;;;15.58;84.25;100030.09;4968362;28;20050;-83
2023/08/08 00:32:41;;;;;;;5.70;2.20;;;;;;;15.57;84.35;100025.72;5005438;28;20100;-84
2023/08/08 00:35:08;;;;;;;10.85;3.22;;;;;;;15.54;84.36;100026.03;5020726;28;20506;-83
2023/08/08 00:37:34;;;;;;;4.25;2.20;;;;;;;15.53;83.98;100022.53;5019542;28;20063;-83
2023/08/08 00:40:01;;;;;;;3.30;2.17;;;;;;;15.52;84.04;100018.19;4973081;28;20042;-84
2023/08/08 00:42:29;;;;;;;5.93;2.50;;;;;;;15.52;84.03;100028.03;4970832;28;20136;-83
2023/08/08 00:45:01;;;;;;;6.20;2.22;;;;;;;15.51;84.29;100016.50;4998429;28;20073;-84
2023/08/08 00:47:32;;;;;;;;;;;;;;;15.35;85.47;100022.66;5032696;28;20046;-84
2023/08/08 00:50:02;;;;;;;6.25;2.28;;;;;;;15.47;84.61;100022.34;4961971;28;19928;-84
2023/08/08 00:52:29;;;;;;;3.30;2.05;;;;;;;15.49;84.56;100023.03;4983556;28;20052;-84
2023/08/08 00:54:56;;;;;;;8.48;2.45;;;;;;;15.49;84.60;100023.03;4979788;28;20049;-83
2023/08/08 00:57:23;;;;;;;5.40;2.65;;;;;;;15.48;84.41;100018.69;4992577;28;20457;-83
2023/08/08 00:59:51;;;;;;;6.80;2.28;;;;;;;15.47;84.66;100016.97;4988718;28;20530;-83
2023/08/08 01:02:17;;;;;;;4.50;2.30;;;;;;;15.49;84.81;100020.34;4971610;28;20454;-83
2023/08/08 01:04:45;;;;;;;8.32;2.53;;;;;;;15.48;84.96;100016.84;4983693;28;20033;-84
2023/08/08 01:07:46;;;;;;;3.30;2.55;;;;;;;15.42;85.31;100020.19;4986261;28;20046;-84
2023/08/08 01:10:20;;;;;;;6.47;2.60;;;;;;;15.46;85.28;100015.31;5000916;28;20582;-83
2023/08/08 01:12:59;;;;;;;3.72;2.78;;;;;;;15.42;85.68;100017.50;5019462;28;20351;-83
2023/08/08 01:15:26;;;;;;;7.32;2.80;;;;;;;15.48;85.39;100011.47;4970651;28;20525;-83
2023/08/08 01:17:54;;;;;;;5.75;3.03;;;;;;;15.50;85.34;100006.81;4980735;28;20496;-83
2023/08/08 01:20:22;;;;;;;5.65;2.83;;;;;;;15.49;85.41;100012.31;5019259;28;20046;-83
2023/08/08 01:22:57;;;;;;;11.60;2.85;;;;;;;15.45;86.01;100010.97;5005001;28;20038;-83
2023/08/08 01:25:26;;;;;;;6.05;2.47;;;;;;;15.47;85.74;100007.16;4969235;28;20058;-83
2023/08/08 01:27:52;;;;;;;8.23;3.10;;;;;;;15.46;85.81;100005.44;5024242;28;20049;-83
2023/08/08 01:30:19;;;;;;;4.18;3.15;;;;;;;15.46;86.14;100002.78;5005842;28;20053;-84
2023/08/08 01:32:46;;;;;;;5.00;3.22;;;;;;;15.46;85.90;100005.44;5039448;28;20129;-83
2023/08/08 01:35:13;;;;;;;8.27;2.47;;;;;;;15.46;85.72;100008.13;4999608;28;20500;-83
2023/08/08 01:37:44;;;;;;;4.13;2.50;;;;;;;15.44;85.61;100006.63;5001127;28;20573;-83
2023/08/08 01:40:12;;;;;;;7.63;2.83;;;;;;;15.46;85.12;100005.44;5005831;28;20121;-83
2023/08/08 01:42:40;;;;;;;4.50;2.50;;;;;;;15.46;85.52;100015.31;5003407;28;20393;-83
2023/08/08 01:45:08;;;;;;;6.13;2.80;;;;;;;15.44;85.56;100004.78;5002323;28;20121;-84
2023/08/08 01:47:35;;;;;;;4.45;2.60;;;;;;;15.42;85.65;100004.13;5037469;28;20042;-83
2023/08/08 01:50:02;;;;;;;5.88;2.65;;;;;;;15.41;85.67;100003.25;5028085;28;20121;-84
2023/08/08 01:52:29;;;;;;;3.45;2.42;;;;;;;15.42;85.39;99996.09;5033761;28;20042;-83
2023/08/08 01:54:56;;;;;;;3.50;2.53;;;;;;;15.40;85.49;99998.91;4988235;28;20043;-84
2023/08/08 01:57:23;;;;;;;9.35;2.75;;;;;;;15.40;85.32;100000.75;5037238;28;20061;-85
2023/08/08 01:59:49;;;;;;;6.28;3.55;;;;;;;15.37;85.16;99999.25;5004197;28;20485;-83
2023/08/08 02:02:17;;;;;;;5.25;2.20;;;;;;;15.36;84.76;99996.72;5019976;28;20064;-86
2023/08/08 02:04:44;;;;;;;7.50;2.90;;;;;;;15.34;85.02;99996.91;4982043;28;20042;-83
2023/08/08 02:07:11;;;;;;;6.00;2.17;;;;;;;15.32;84.74;99993.56;4988932;28;20050;-83
2023/08/08 02:09:37;;;;;;;5.00;2.25;;;;;;;15.32;84.79;99995.41;5018150;28;20053;-83
2023/08/08 02:12:04;;;;;;;7.30;2.53;;;;;;;15.31;84.87;99997.22;4974267;28;20125;-84
2023/08/08 02:14:32;;;;;;;10.70;3.03;;;;;;;15.29;84.92;99998.38;4975154;28;20038;-83
2023/08/08 02:16:59;;;;;;;8.05;2.90;;;;;;;15.30;84.81;99992.03;4978233;28;20493;-83
2023/08/08 02:19:25;;;;;;;5.05;3.00;;;;;;;15.29;84.96;99993.00;4940000;28;20097;-83
2023/08/08 02:21:53;;;;;;;3.97;2.90;;;;;;;15.30;85.00;99995.53;4961295;28;20124;-83
2023/08/08 02:24:19;;;;;;;3.95;2.58;;;;;;;15.29;85.13;99985.84;5021785;28;20146;-83
2023/08/08 02:26:46;;;;;;;9.15;2.88;;;;;;;15.29;84.87;99993.88;5020839;28;20458;-83
2023/08/08 02:29:13;;;;;;;3.63;2.40;;;;;;;15.26;84.75;99988.81;4986222;28;20057;-85
2023/08/08 02:31:40;;;;;;;10.35;2.75;;;;;;;15.24;84.52;99990.84;5039573;28;20124;-83
2023/08/08 02:34:07;;;;;;;2.60;2.15;;;;;;;15.23;84.32;99988.31;5009528;28;20042;-83
2023/08/08 02:36:34;;;;;;;5.40;2.72;;;;;;;15.22;84.32;99984.00;5041151;28;20100;-83
2023/08/08 02:39:01;;;;;;;5.90;2.78;;;;;;;15.21;84.36;99991.16;4980801;28;20125;-83
2023/08/08 02:41:27;;;;;;;4.80;2.50;;;;;;;15.17;84.01;99993.31;4992850;28;20490;-83
2023/08/08 02:43:54;;;;;;;5.18;2.00;;;;;;;15.17;83.88;99995.16;4964445;28;20549;-83
2023/08/08 02:46:22;;;;;;;3.08;2.13;;;;;;;15.13;83.59;99985.78;4979740;28;20039;-83
2023/08/08 02:48:49;;;;;;;4.13;1.95;;;;;;;15.11;83.39;99988.63;5001956;28;20129;-83
2023/08/08 02:51:16;;;;;;;6.05;2.15;;;;;;;15.12;83.22;99997.50;4972780;28;20043;-83
2023/08/08 02:53:43;;;;;;;3.92;2.08;;;;;;;15.10;83.42;99992.28;4973318;28;20046;-83
2023/08/08 02:56:10;;;;;;;5.55;2.20;;;;;;;15.06;83.45;99992.75;4968356;28;20046;-83
2023/08/08 02:58:40;;;;;;;4.95;2.20;;;;;;;15.05;83.16;99983.06;5006428;28;20046;-83
2023/08/08 03:01:07;;;;;;;2.80;1.73;;;;;;;15.01;82.89;99987.94;5014128;28;20091;-83
2023/08/08 03:03:35;;;;;;;4.20;2.15;;;;;;;15.01;82.99;99995.09;4989497;28;20396;-83
2023/08/08 03:06:03;;;;;;;5.00;2.30;;;;;;;15.01;82.77;99993.28;5006877;28;20042;-83
2023/08/08 03:08:30;;;;;;;3.90;2.20;;;;;;;14.98;83.14;99990.91;4988348;28;20151;-83
2023/08/08 03:10:59;;;;;;;5.45;2.22;;;;;;;14.98;82.82;99999.78;4990583;28;20054;-84
2023/08/08 03:13:26;;;;;;;6.03;2.05;;;;;;;14.97;82.72;99991.91;4985332;28;20371;-83
2023/08/08 03:15:56;;;;;;;5.60;2.30;;;;;;;14.94;82.88;99987.72;4992270;28;20120;-83
2023/08/08 03:18:25;;;;;;;3.30;2.35;;;;;;;14.95;83.17;99992.06;4983989;28;20131;-83
2023/08/08 03:20:52;;;;;;;6.15;2.22;;;;;;;14.96;83.34;99985.72;5037774;28;20060;-84
2023/08/08 03:23:20;;;;;;;4.18;2.45;;;;;;;14.97;83.45;99983.88;4988216;28;20129;-83
2023/08/08 03:25:47;;;;;;;2.47;2.10;;;;;;;14.95;83.28;99976.00;5004467;28;20043;-83
2023/08/08 03:28:15;;;;;;;6.40;2.92;;;;;;;14.94;83.64;99978.88;5009078;28;20057;-83
2023/08/08 03:30:42;;;;;;;6.28;3.05;;;;;;;14.92;83.41;99972.84;5017787;28;20050;-83
2023/08/08 03:33:10;;;;;;;7.60;3.17;;;;;;;14.90;83.41;99974.81;4987344;28;20046;-83
2023/08/08 03:35:38;;;;;;;5.55;3.17;;;;;;;14.88;83.58;99975.00;5018839;28;20385;-83
2023/08/08 03:38:05;;;;;;;4.53;3.08;;;;;;;14.87;83.38;99983.16;4978005;28;20049;-83
2023/08/08 03:40:31;;;;;;;5.32;2.85;;;;;;;14.84;82.97;99989.69;5021717;28;20045;-83
2023/08/08 03:42:59;;;;;;;14.02;3.45;;;;;;;14.83;83.02;99982.63;5003830;28;20049;-83
2023/08/08 03:45:27;;;;;;;6.13;2.70;;;;;;;14.80;82.64;99982.97;5023559;28;20505;-83
2023/08/08 03:47:53;;;;;;;3.72;2.40;;;;;;;14.81;82.75;99983.78;5005853;28;20073;-83
2023/08/08 03:50:20;;;;;;;5.00;3.15;;;;;;;14.80;82.41;99987.47;5006680;28;20513;-83
2023/08/08 03:52:47;;;;;;;6.93;2.90;;;;;;;14.81;82.75;99992.69;5008289;28;20448;-84
2023/08/08 03:55:14;;;;;;;7.03;3.22;;;;;;;14.79;83.11;99988.47;5004832;28;20439;-83
2023/08/08 03:57:42;;;;;;;3.17;2.55;;;;;;;14.75;83.03;99983.44;4967322;28;20120;-87
2023/08/08 04:00:09;;;;;;;5.78;2.78;;;;;;;14.73;83.09;99982.78;4975562;28;20070;-85
2023/08/08 04:02:39;;;;;;;5.88;2.30;;;;;;;14.73;83.20;99984.59;4960218;28;20112;-86
2023/08/08 04:05:06;;;;;;;4.10;2.30;;;;;;;14.72;83.10;99989.09;4956729;28;20125;-86
2023/08/08 04:07:33;;;;;;;6.85;2.90;;;;;;;14.71;82.94;99989.28;4987057;28;20498;-86
2023/08/08 04:10:00;;;;;;;6.25;3.67;;;;;;;14.69;82.82;99981.41;4984272;28;20057;-86
2023/08/08 04:12:30;;;;;;;4.20;2.08;;;;;;;14.71;83.29;99989.28;4965125;28;20054;-85
2023/08/08 04:14:57;;;;;;;5.38;2.78;;;;;;;14.70;83.14;99984.91;4951737;28;20047;-86
2023/08/08 04:17:24;;;;;;;3.80;2.50;;;;;;;14.67;83.47;99983.41;4973528;28;20405;-85
2023/08/08 04:19:50;;;;;;;9.25;2.47;;;;;;;14.69;83.38;99983.25;4978825;28;20058;-86
2023/08/08 04:22:17;;;;;;;5.32;2.90;;;;;;;14.69;83.15;99994.78;4953245;28;20050;-86
2023/08/08 04:24:44;;;;;;;5.88;3.15;;;;;;;14.68;83.03;99997.59;4985936;28;20050;-86
2023/08/08 04:27:11;;;;;;;4.65;3.47;;;;;;;14.67;83.26;99994.09;4980805;28;20117;-86
2023/08/08 04:29:37;;;;;;;4.47;3.08;;;;;;;14.64;83.71;100002.41;4944618;28;20517;-86
2023/08/08 04:32:04;;;;;;;6.22;3.40;;;;;;;14.62;83.42;99996.38;4948433;28;20100;-86
2023/08/08 04:34:31;;;;;;;9.02;3.80;;;;;;;14.63;83.36;99998.09;4977724;28;20046;-85
2023/08/08 04:36:58;;;;;;;7.63;3.70;;;;;;;14.62;83.58;100004.41;4979393;28;20034;-85
2023/08/08 04:39:25;;;;;;;9.20;3.75;;;;;;;14.60;83.83;100000.22;4974575;28;20395;-86
2023/08/08 04:41:52;;;;;;;4.65;3.05;;;;;;;14.59;83.67;99994.03;4983903;28;20141;-85
2023/08/08 04:44:19;;;;;;;4.40;2.85;;;;;;;14.60;83.61;100001.06;4941915;28;20042;-86
2023/08/08 04:46:46;;;;;;;8.25;3.75;;;;;;;14.60;83.64;99995.72;4945873;28;20275;-86
2023/08/08 04:49:12;;;;;;;10.63;3.88;;;;;;;14.60;83.88;99992.19;4953450;28;20050;-85
2023/08/08 04:51:39;;;;;;;7.43;3.50;;;;;;;14.62;83.88;99990.22;4967487;28;20042;-85
2023/08/08 04:54:06;;;;;;;4.70;3.38;;;;;;;14.66;83.93;99999.59;4964637;28;20043;-85
2023/08/08 04:56:33;;;;;;;6.72;3.22;;;;;;;14.72;84.22;100002.47;4951443;28;20070;-85
2023/08/08 04:59:00;;;;;;;6.32;3.45;;;;;;;14.73;84.24;99997.94;4978135;28;20042;-85
2023/08/08 05:01:26;;;;;;;5.78;3.25;;;;;;;14.77;83.85;100002.00;4984408;28;20489;-86
2023/08/08 05:03:53;;;;;;;4.93;3.75;;;;;;;14.80;83.67;99998.16;4976320;28;20050;-85
2023/08/08 05:06:22;;;;;;;3.92;2.95;;;;;;;14.85;83.39;99998.53;4969846;28;20046;-85
2023/08/08 05:08:51;;;;;;;4.88;3.33;;;;;;;14.88;83.51;99992.84;4979387;28;20132;-85
2023/08/08 05:11:17;;;;;;;4.75;3.40;;;;;;;14.89;83.36;99999.91;4956762;28;20444;-85
2023/08/08 05:13:44;;;;;;;7.72;3.05;;;;;;;14.85;83.47;100001.19;4982654;28;20121;-85
2023/08/08 05:16:11;;;;;;;9.07;3.70;;;;;;;14.81;83.86;100002.50;4982349;28;20070;-85
2023/08/08 05:18:38;;;;;;;8.05;4.05;;;;;;;14.81;83.94;100008.72;4965680;28;20069;-86
2023/08/08 05:21:05;;;;;;;5.60;3.67;;;;;;;14.82;84.34;100001.53;4964075;28;20054;-85
2023/08/08 05:23:32;;;;;;;6.40;3.55;;;;;;;14.85;84.49;99995.84;4982115;28;20042;-85
2023/08/08 05:25:59;;;;;;;5.68;3.67;;;;;;;14.85;83.67;99994.00;4935180;28;20031;-85
2023/08/08 05:28:26;;;;;;;5.28;3.15;;;;;;;14.89;84.00;99991.88;4966650;28;22800;-85
2023/08/08 05:30:53;;;;;;;7.45;3.58;;;;;;;14.93;83.56;99991.41;5020635;28;20060;-86
2023/08/08 05:33:20;;;;;;;5.30;3.10;;;;;;;14.95;83.88;99988.56;5003554;28;20716;-86
2023/08/08 05:35:46;;;;;;;6.47;3.00;;;;;;;14.97;82.98;99991.91;4993415;28;20095;-85
2023/08/08 05:38:13;;;;;;;8.88;3.38;;;;;;;15.00;83.27;99990.75;5002120;28;20100;-85
2023/08/08 05:40:41;;;;;;;5.72;3.03;;;;;;;15.03;83.00;99991.25;5017320;28;20492;-85
2023/08/08 05:43:08;;;;;;;6.75;2.95;;;;;;;15.07;82.66;99994.47;5003664;28;20072;-85
2023/08/08 05:45:35;;;;;;;3.67;2.78;;;;;;;15.05;82.65;99983.06;5012326;28;20042;-85
2023/08/08 05:48:01;;;;;;;9.75;3.50;;;;;;;15.07;82.74;99992.63;5025264;28;20052;-85
2023/08/08 05:50:28;;;;;;;6.95;3.40;;;;;;;15.09;82.53;99993.31;5018001;28;20724;-85
2023/08/08 05:52:55;;;;;;;4.75;2.90;;;;;;;15.12;82.63;99987.63;5025635;28;20049;-85
2023/08/08 05:55:22;;;;;;;6.82;2.92;;;;;;;15.14;82.75;99988.31;5017115;28;20112;-86
2023/08/08 05:57:49;;;;;;;6.85;3.20;;;;;;;15.16;82.98;99978.28;4981270;28;20561;-85
2023/08/08 06:00:16;;;;;;;5.93;3.05;;;;;;;15.19;83.06;99990.50;5003142;28;20108;-85
2023/08/08 06:02:42;;;;;;;5.90;2.88;;;;;;;15.21;83.20;99985.81;5004954;28;20133;-85
2023/08/08 06:05:10;;;;;;;6.78;3.00;;;;;;;15.28;83.59;99989.50;5001651;28;20505;-85
2023/08/08 06:07:37;;;;;;;8.70;3.13;;;;;;;15.32;83.53;99982.84;4988094;28;20049;-85
2023/08/08 06:10:05;;;;;;;4.10;2.85;;;;;;;15.33;83.49;99979.16;5003038;28;20824;-85
2023/08/08 06:12:32;;;;;;;4.50;3.20;;;;;;;15.39;83.80;99978.53;5007262;28;20731;-85
2023/08/08 06:14:59;;;;;;;5.15;2.92;;;;;;;15.46;84.30;99980.53;4983516;28;20204;-85
2023/08/08 06:17:25;;;;;;;6.00;2.95;;;;;;;15.50;84.46;99972.03;4955741;28;20071;-85
2023/08/08 06:19:54;;;;;;;6.28;3.15;;;;;;;15.57;84.57;99980.22;4976546;28;20054;-86
2023/08/08 06:22:21;;;;;;;6.05;2.90;;;;;;;15.62;85.33;99976.06;5028647;28;20831;-85
2023/08/08 06:24:50;;;;;;;7.13;2.60;;;;;;;15.70;85.05;99974.41;5004606;28;20137;-86
2023/08/08 06:27:17;;;;;;;2.58;1.77;;;;;;;15.77;84.14;99976.28;5018845;28;20494;-86
2023/08/08 06:29:44;;;;;;;4.40;2.20;;;;;;;15.84;83.44;99985.31;4988168;28;20076;-86
2023/08/08 06:32:10;;;;;;;3.40;1.70;;;;;;;15.91;82.76;99976.63;5007427;28;20088;-87
2023/08/08 06:34:37;;;;;;;5.43;2.05;;;;;;;15.97;82.26;99973.25;5023689;28;20619;-86
2023/08/08 06:37:04;;;;;;;3.42;1.92;;;;;;;16.02;81.85;99970.91;5013709;28;20685;-87
2023/08/08 06:39:31;;;;;;;3.03;2.13;;;;;;;16.06;81.56;99972.28;4990838;28;20049;-87
2023/08/08 06:41:58;;;;;;;2.35;1.60;;;;;;;16.08;80.98;99977.44;5006960;28;20070;-86
2023/08/08 06:44:44;;;;;;;2.53;1.77;;;;;;;16.15;80.97;99975.78;4987939;28;20054;-87
2023/08/08 06:47:11;;;;;;;3.60;2.30;;;;;;;16.15;81.44;99976.59;5003525;28;20114;-87
2023/08/08 06:49:38;;;;;;;4.97;2.00;;;;;;;16.17;80.86;99969.25;4968802;28;20360;-88
2023/08/08 06:52:05;;;;;;;4.38;2.00;;;;;;;16.20;80.81;99976.09;4987508;28;20038;-87
2023/08/08 06:54:32;;;;;;;2.78;2.08;;;;;;;16.23;81.18;99976.63;4982514;28;20066;-87
2023/08/08 06:56:59;;;;;;;4.13;2.15;;;;;;;16.29;80.65;99977.78;4989465;28;20117;-86
2023/08/08 06:59:27;;;;;;;6.85;2.63;;;;;;;16.33;80.09;99975.59;5005673;28;20124;-87
2023/08/08 07:01:54;;;;;;;5.10;2.00;;;;;;;16.33;79.55;99978.25;4997294;28;20050;-86
2023/08/08 07:04:22;;;;;;;2.83;1.67;;;;;;;16.35;79.65;99976.25;4984199;28;20442;-86
2023/08/08 07:06:49;;;;;;;3.03;1.58;;;;;;;16.35;79.64;99968.22;5009569;28;20066;-87
2023/08/08 07:09:16;;;;;;;2.90;1.65;;;;;;;16.38;79.44;99967.88;5040033;28;20509;-88
2023/08/08 07:11:43;;;;;;;6.30;2.13;;;;;;;16.41;79.58;99965.72;5034602;28;20048;-86
2023/08/08 07:14:10;;;;;;;3.33;1.80;;;;;;;16.44;79.16;99964.53;5036758;28;20050;-87
2023/08/08 07:16:37;;;;;;;3.25;1.60;;;;;;;16.48;78.55;99971.19;5019107;28;20049;-87
2023/08/08 07:19:05;;;;;;;2.97;1.77;;;;;;;16.47;78.23;99967.69;4969125;28;20417;-87
2023/08/08 07:21:33;;;;;;;1.73;1.50;;;;;;;16.49;78.29;99962.19;4944229;28;20054;-87
2023/08/08 07:23:59;;;;;;;9.70;1.80;;;;;;;16.53;78.40;99963.47;4984420;28;20137;-86
2023/08/08 07:26:26;;;;;;;3.35;1.80;;;;;;;16.57;78.42;99958.63;4988508;28;20066;-86
2023/08/08 07:28:53;;;;;;;2.60;1.60;;;;;;;16.57;78.03;99955.97;5038239;28;20054;-87
2023/08/08 07:31:20;;;;;;;2.72;1.42;;;;;;;16.60;77.68;99950.25;5015713;28;20061;-90
2023/08/08 07:33:47;;;;;;;4.20;1.55;;;;;;;16.66;77.75;99944.19;4995796;28;20046;-90
2023/08/08 07:36:14;;;;;;;6.10;1.80;;;;;;;16.68;76.65;99944.84;4984911;28;20039;-88
2023/08/08 07:38:40;;;;;;;2.40;1.50;;;;;;;16.67;76.18;99938.66;4956247;28;20043;-89
2023/08/08 07:41:07;;;;;;;4.13;1.60;;;;;;;16.69;76.28;99949.22;4971014;28;20046;-85
2023/08/08 07:43:34;;;;;;;2.80;1.40;;;;;;;16.67;75.91;99948.56;4968382;28;20042;-85
2023/08/08 07:46:01;;;;;;;3.25;1.40;;;;;;;16.71;75.97;99948.03;5003829;28;20049;-86
2023/08/08 07:48:28;;;;;;;4.03;1.73;;;;;;;16.75;75.80;99945.00;5011441;28;20099;-87
2023/08/08 07:50:54;;;;;;;4.20;2.75;;;;;;;16.81;76.03;99949.69;5002667;28;20049;-86
2023/08/08 07:53:21;;;;;;;5.60;3.55;;;;;;;16.83;75.29;99932.44;4987725;28;20050;-86
2023/08/08 07:55:48;;;;;;;4.05;2.90;;;;;;;16.89;75.70;99945.16;5014758;28;20104;-87
2023/08/08 07:58:15;;;;;;;3.40;2.35;;;;;;;16.92;74.65;99939.44;4974506;28;20081;-88
2023/08/08 08:00:41;;;;;;;4.78;2.00;;;;;;;16.93;74.71;99934.91;5013943;28;20046;-87
2023/08/08 08:03:08;;;;;;;6.28;2.25;;;;;;;16.97;74.59;99949.66;5017229;28;20042;-87
2023/08/08 08:05:37;;;;;;;4.72;1.52;;;;;;;17.00;74.12;99943.09;5015514;28;20058;-87
2023/08/08 08:08:04;;;;;;;3.35;1.90;;;;;;;16.96;74.02;99941.78;4957269;28;20782;-87
2023/08/08 08:10:31;;;;;;;10.80;3.65;;;;;;;16.99;73.91;99947.59;4943486;28;20574;-87
2023/08/08 08:12:58;;;;;;;4.13;2.08;;;;;;;17.01;73.81;99947.44;4952767;28;20126;-86
2023/08/08 08:15:25;;;;;;;4.82;2.17;;;;;;;17.03;73.56;99945.44;4969376;28;20104;-86
2023/08/08 08:17:52;;;;;;;4.28;1.50;;;;;;;17.08;73.83;99946.56;4970002;28;20112;-86
2023/08/08 08:20:19;;;;;;;4.90;2.20;;;;;;;17.13;72.87;99946.88;4971401;28;20048;-88
2023/08/08 08:22:46;;;;;;;5.97;2.67;;;;;;;17.13;72.15;99946.88;4966451;28;20642;-85
2023/08/08 08:25:14;;;;;;;5.78;2.20;;;;;;;17.13;72.20;99944.19;4982082;28;20105;-87
2023/08/08 08:27:40;;;;;;;6.68;2.08;;;;;;;17.18;71.97;99949.03;4963808;28;20050;-86
2023/08/08 08:30:09;;;;;;;6.60;2.40;;;;;;;17.21;71.89;99939.81;5011311;28;20061;-87
2023/08/08 08:32:38;;;;;;;6.78;2.63;;;;;;;17.25;71.54;99944.66;4986201;28;20523;-87
2023/08/08 08:35:06;;;;;;;7.25;1.88;;;;;;;17.28;71.19;99946.97;4999147;28;20046;-86
2023/08/08 08:37:34;;;;;;;3.45;1.55;;;;;;;17.32;71.62;99939.38;5028673;28;20493;-86
2023/08/08 08:40:01;;;;;;;6.82;1.98;;;;;;;17.35;71.66;99944.41;5016142;28;20497;-86
2023/08/08 08:42:28;;;;;;;7.07;2.65;;;;;;;17.38;70.44;99943.22;5001638;28;20517;-86
2023/08/08 08:44:57;;;;;;;7.38;1.83;;;;;;;17.39;70.73;99942.22;4987290;28;20099;-85
2023/08/08 08:47:25;;;;;;;2.90;1.55;;;;;;;17.41;70.92;99937.50;4973339;28;20139;-86
2023/08/08 08:49:52;;;;;;;5.32;1.30;;;;;;;17.44;71.40;99937.16;4989010;28;20054;-87
2023/08/08 08:52:19;;;;;;;4.45;1.30;;;;;;;17.46;71.55;99935.97;4996476;28;20044;-86
2023/08/08 08:54:45;;;;;;;9.27;2.35;;;;;;;17.52;70.59;99931.72;4993817;28;20070;-87
2023/08/08 08:57:12;;;;;;;6.32;1.50;;;;;;;17.53;70.84;99936.09;4978030;28;20524;-86
2023/08/08 08:59:39;;;;;;;3.30;1.65;;;;;;;17.55;70.68;99937.59;5012051;28;20488;-87
2023/08/08 09:02:07;;;;;;;3.53;2.03;;;;;;;17.58;70.30;99945.28;5011012;28;20049;-87
2023/08/08 09:04:34;;;;;;;3.22;1.40;;;;;;;17.62;70.21;99934.16;4976010;28;20050;-87
2023/08/08 09:07:02;;;;;;;2.38;1.25;;;;;;;17.64;70.38;99932.16;5012630;28;20038;-87
2023/08/08 09:09:31;;;;;;;4.50;1.48;;;;;;;17.67;70.10;99934.47;4975138;28;20051;-86
2023/08/08 09:11:58;;;;;;;6.53;1.73;;;;;;;17.69;69.82;99946.69;4947420;28;20038;-87
2023/08/08 09:14:26;;;;;;;2.53;1.15;;;;;;;17.67;68.50;99937.16;4941701;28;20077;-88
2023/08/08 09:16:54;;;;;;;4.88;1.75;;;;;;;17.69;68.61;99932.44;4962998;28;20073;-88
2023/08/08 09:19:21;;;;;;;3.85;1.45;;;;;;;17.72;68.98;99929.41;4970901;28;20050;-87
2023/08/08 09:21:49;;;;;;;5.03;1.60;;;;;;;17.76;68.78;99930.72;4989727;28;20399;-87
2023/08/08 09:24:16;;;;;;;6.07;1.67;;;;;;;17.77;67.79;99918.94;5020407;28;20050;-87
2023/08/08 09:26:43;;;;;;;3.15;1.27;;;;;;;17.77;68.26;99935.06;4989705;28;20390;-88
2023/08/08 09:29:12;;;;;;;2.78;1.17;;;;;;;17.77;67.80;99924.31;5004642;28;20090;-88
2023/08/08 09:31:39;;;;;;;3.55;1.30;;;;;;;17.77;68.33;99935.06;5000017;28;20064;-89
2023/08/08 09:34:06;;;;;;;5.25;1.55;;;;;;;17.74;68.22;99936.25;5001115;28;20042;-88
2023/08/08 09:36:34;;;;;;;3.88;1.25;;;;;;;17.75;67.00;99929.03;5021157;28;20489;-87
2023/08/08 09:39:02;;;;;;;6.90;1.20;;;;;;;17.77;66.49;99927.84;4984972;28;20054;-86
2023/08/08 09:41:29;;;;;;;3.53;1.55;;;;;;;17.80;66.43;99918.59;4953577;28;20125;-88
2023/08/08 09:43:56;;;;;;;4.60;1.70;;;;;;;17.82;66.63;99916.59;4980669;28;20088;-88
2023/08/08 09:46:23;;;;;;;3.20;1.63;;;;;;;17.87;66.36;99922.25;5000230;28;20076;-88
2023/08/08 09:48:50;;;;;;;4.18;1.38;;;;;;;17.89;66.03;99917.53;4985592;28;20034;-87
2023/08/08 09:51:17;;;;;;;4.75;1.45;;;;;;;17.95;64.85;99913.28;5016896;28;20081;-86
2023/08/08 09:53:44;;;;;;;3.92;1.50;;;;;;;17.93;64.92;99910.78;5034110;28;20039;-89
2023/08/08 09:56:11;;;;;;;2.83;1.33;;;;;;;17.95;64.97;99907.91;4990671;28;20101;-89
2023/08/08 09:58:38;;;;;;;3.00;2.25;;;;;;;17.93;65.27;99905.41;4974248;28;20450;-91
2023/08/08 10:01:05;;;;;;;3.97;1.92;;;;;;;17.97;65.39;99913.94;4994259;28;20600;-90
2023/08/08 10:03:32;;;;;;;3.60;1.38;;;;;;;17.96;65.16;99902.38;4944473;28;20049;-92
2023/08/08 10:06:01;;;;;;;3.20;1.48;;;;;;;17.99;64.99;99909.22;4962066;28;20054;-93
2023/08/08 10:08:28;;;;;;;2.72;1.45;;;;;;;18.00;64.75;99908.19;4959565;28;20082;-88
2023/08/08 10:10:55;;;;;;;9.25;1.85;;;;;;;18.04;64.80;99914.03;4969609;28;20061;-87
2023/08/08 10:13:23;;;;;;;2.83;1.60;;;;;;;18.06;63.85;99901.25;4968661;28;20054;-88
2023/08/08 10:15:51;;;;;;;3.95;1.67;;;;;;;18.05;64.05;99903.13;4982370;28;20405;-88
2023/08/08 10:18:21;;;;;;;1.88;1.63;;;;;;;18.09;63.28;99887.44;4980280;28;20501;-86
2023/08/08 10:20:49;;;;;;;4.45;1.42;;;;;;;18.11;63.76;99899.69;5019997;28;20050;-88
2023/08/08 10:23:17;;;;;;;2.58;1.25;;;;;;;18.10;63.63;99892.66;5036264;28;20057;-88
2023/08/08 10:25:45;;;;;;;6.07;1.55;;;;;;;18.12;63.42;99896.00;5020848;28;20067;-89
2023/08/08 10:28:14;;;;;;;2.78;1.40;;;;;;;18.13;63.95;99894.13;4986448;28;20410;-89
2023/08/08 10:30:57;;;;;;;5.03;1.55;;;;;;;18.14;62.73;99888.59;4969462;28;20142;-89
2023/08/08 10:33:26;;;;;;;4.03;1.52;;;;;;;18.17;63.09;99892.75;4943633;28;20051;-88
2023/08/08 10:35:56;;;;;;;3.97;1.65;;;;;;;18.23;62.24;99881.25;4952604;28;20051;-90
2023/08/08 10:38:23;;;;;;;5.10;1.73;;;;;;;18.25;63.05;99884.63;4991138;28;20060;-89
2023/08/08 10:40:56;;;;;;;5.20;1.70;;;;;;;18.28;63.03;99895.00;4979294;28;20133;-90
2023/08/08 10:43:26;;;;;;;3.85;1.60;;;;;;;18.34;63.45;99879.97;5038167;28;20048;-91
2023/08/08 10:45:58;;;;;;;2.42;1.30;;;;;;;18.37;62.32;99887.69;4998635;28;20053;-90
2023/08/08 10:48:49;;;;;;;5.20;1.80;;;;;;;18.35;62.76;99892.41;5007097;28;20440;-91
2023/08/08 10:51:16;;;;;;;3.22;1.50;;;;;;;18.43;63.22;99884.25;5007365;28;20078;-89
2023/08/08 10:53:44;;;;;;;4.22;1.45;;;;;;;18.42;62.66;99879.91;5000349;28;20050;-91
2023/08/08 10:56:13;;;;;;;5.13;1.65;;;;;;;18.46;62.93;99874.97;4987750;28;20042;-89
2023/08/08 10:58:41;;;;;;;4.05;1.73;;;;;;;18.48;62.92;99881.84;4976558;28;20053;-92
2023/08/08 11:01:09;;;;;;;2.35;1.30;;;;;;;18.47;63.38;99877.50;5004072;28;20096;-91
2023/08/08 11:03:40;;;;;;;4.55;1.35;;;;;;;18.46;61.77;99880.34;5018945;28;20050;-88
2023/08/08 11:06:08;;;;;;;4.85;1.83;;;;;;;18.49;62.16;99866.53;5008443;28;20054;-90
2023/08/08 11:08:37;;;;;;;2.42;1.50;;;;;;;18.51;62.58;99873.38;4987761;28;20498;-89
2023/08/08 11:11:06;;;;;;;4.63;1.42;;;;;;;18.54;62.46;99872.19;5007977;28;20100;-89
2023/08/08 11:13:33;;;;;;;3.08;1.33;;;;;;;18.56;62.61;99854.84;4984506;28;20046;-91
2023/08/08 11:16:01;;;;;;;5.00;1.83;;;;;;;18.59;62.37;99861.69;4991296;28;20046;-89
2023/08/08 11:18:29;;;;;;;2.65;1.50;;;;;;;18.59;62.97;99856.31;4956485;28;20463;-90
2023/08/08 11:20:56;;;;;;;6.88;1.60;;;;;;;18.59;62.46;99854.47;4954433;28;20046;-90
2023/08/08 11:23:45;;;;;;;3.63;1.75;;;;;;;18.62;62.12;99855.94;4971131;28;20046;-89
2023/08/08 11:26:12;;;;;;;5.20;1.77;;;;;;;18.68;61.77;99862.44;4970017;28;20061;-90
2023/08/08 11:28:49;;;;;;;3.50;2.20;;;;;;;18.66;62.10;99859.94;4979362;28;20428;-90
2023/08/08 11:31:16;;;;;;;5.90;1.73;;;;;;;18.71;62.37;99854.81;5009093;28;20112;-90
2023/08/08 11:33:43;;;;;;;1.90;1.50;;;;;;;18.72;61.53;99858.34;4970473;28;20039;-89